createdAt,value
2023-04-06T00:01:48.059Z,44.03
2023-04-06T00:04:15.771Z,42.50
2023-04-06T00:06:43.276Z,43.33
2023-04-06T00:09:10.850Z,45.50
2023-04-06T00:11:38.229Z,41.80
2023-04-06T00:14:05.738Z,42.53
2023-04-06T00:16:33.175Z,40.80
2023-04-06T00:19:00.599Z,41.73
2023-04-06T00:21:28.297Z,43.67
2023-04-06T00:23:56.106Z,42.47
2023-04-06T00:26:23.431Z,48.67
2023-04-06T00:28:53.136Z,49.53
2023-04-06T00:31:20.487Z,46.20
2023-04-06T00:33:49.427Z,41.67
2023-04-06T00:36:16.832Z,53.73
2023-04-06T00:38:44.326Z,44.63
2023-04-06T00:41:11.766Z,40.77
2023-04-06T00:43:39.088Z,44.37
2023-04-06T00:46:07.029Z,41.27
2023-04-06T00:48:34.615Z,45.03
2023-04-06T00:51:02.772Z,41.23
2023-04-06T00:53:30.408Z,43.83
2023-04-06T00:55:59.391Z,39.60
2023-04-06T00:58:27.136Z,40.93
2023-04-06T01:01:02.646Z,46.00
2023-04-06T01:03:30.135Z,49.67
2023-04-06T01:05:59.393Z,43.63
2023-04-06T01:08:33.198Z,50.73
2023-04-06T01:11:13.452Z,46.75
2023-04-06T01:13:41.101Z,47.17
2023-04-06T01:16:16.607Z,54.27
2023-04-06T01:19:13.096Z,49.23
2023-04-06T01:21:45.096Z,48.37
2023-04-06T01:24:30.685Z,45.47
2023-04-06T01:27:11.690Z,53.33
2023-04-06T01:29:48.057Z,58.87
2023-04-06T01:32:22.585Z,50.17
2023-04-06T01:34:52.255Z,51.20
2023-04-06T01:37:19.778Z,58.33
2023-04-06T01:39:47.595Z,65.13
2023-04-06T01:42:24.150Z,59.97
2023-04-06T01:44:52.006Z,56.50
2023-04-06T01:47:19.399Z,53.93
2023-04-06T01:49:47.469Z,59.17
2023-04-06T01:52:16.800Z,50.83
2023-04-06T01:54:51.712Z,48.37
2023-04-06T01:57:36.041Z,49.70
2023-04-06T02:00:15.529Z,48.70
2023-04-06T02:02:47.487Z,40.70
2023-04-06T02:05:21.948Z,47.43
2023-04-06T02:07:51.326Z,42.87
2023-04-06T02:10:23.159Z,44.30
2023-04-06T02:12:50.708Z,38.33
2023-04-06T02:15:24.244Z,37.97
2023-04-06T02:17:52.658Z,41.60
2023-04-06T02:20:20.163Z,39.63
2023-04-06T02:22:47.611Z,42.10
2023-04-06T02:25:15.110Z,40.93
2023-04-06T02:27:42.608Z,52.40
2023-04-06T02:30:10.847Z,42.57
2023-04-06T02:32:38.278Z,46.87
2023-04-06T02:35:06.125Z,43.83
2023-04-06T02:37:35.440Z,43.27
2023-04-06T02:40:02.731Z,44.00
2023-04-06T02:42:31.828Z,45.43
2023-04-06T02:44:59.206Z,54.97
2023-04-06T02:47:31.141Z,44.97
2023-04-06T02:49:58.474Z,50.23
2023-04-06T02:52:26.156Z,48.90
2023-04-06T02:54:53.482Z,53.67
2023-04-06T02:57:26.752Z,45.37
2023-04-06T02:59:54.302Z,43.97
2023-04-06T03:02:28.926Z,41.87
2023-04-06T03:05:05.629Z,43.20
2023-04-06T03:07:37.687Z,44.70
2023-04-06T03:10:06.328Z,44.03
2023-04-06T03:12:34.019Z,51.67
2023-04-06T03:15:18.092Z,43.77
2023-04-06T03:17:50.930Z,42.77
2023-04-06T03:20:43.708Z,53.17
2023-04-06T03:23:11.795Z,43.87
2023-04-06T03:25:42.510Z,57.37
2023-04-06T03:28:14.338Z,54.90
2023-04-06T03:30:50.902Z,98.93
2023-04-06T03:33:24.566Z,88.87
2023-04-06T03:35:55.974Z,311.90
2023-04-06T03:38:26.304Z,665.63
2023-04-06T03:40:54.680Z,618.30
2023-04-06T03:43:26.014Z,371.60
2023-04-06T03:45:53.396Z,329.37
2023-04-06T03:48:21.250Z,571.23
2023-04-06T03:50:48.783Z,485.20
2023-04-06T03:53:16.328Z,364.73
2023-04-06T03:55:43.521Z,420.30
2023-04-06T03:58:11.022Z,462.87
2023-04-06T04:00:38.876Z,499.67
2023-04-06T04:03:06.585Z,482.97
2023-04-06T04:05:33.938Z,381.43
2023-04-06T04:08:01.421Z,310.30
2023-04-06T04:10:28.742Z,273.43
2023-04-06T04:12:56.194Z,263.73
2023-04-06T04:15:24.031Z,196.77
2023-04-06T04:17:51.760Z,152.53
2023-04-06T04:20:19.290Z,135.10
2023-04-06T04:22:46.614Z,106.43
2023-04-06T04:25:15.675Z,105.23
2023-04-06T04:27:47.821Z,92.00
2023-04-06T04:30:16.457Z,90.10
2023-04-06T04:32:43.847Z,70.70
2023-04-06T04:35:12.370Z,67.63
2023-04-06T04:40:11.796Z,73.43
2023-04-06T04:42:53.412Z,67.63
2023-04-06T04:45:27.368Z,75.10
2023-04-06T04:47:54.822Z,68.53
2023-04-06T04:52:56.766Z,71.90
2023-04-06T04:55:27.131Z,64.63
2023-04-06T04:57:58.087Z,73.97
2023-04-06T05:00:43.221Z,69.13
2023-04-06T05:03:24.334Z,65.83
2023-04-06T05:06:07.310Z,75.50
2023-04-06T05:08:37.922Z,65.37
2023-04-06T05:11:06.078Z,65.20
2023-04-06T05:13:37.987Z,62.73
2023-04-06T05:16:11.973Z,75.10
2023-04-06T05:18:39.506Z,66.67
2023-04-06T05:21:07.685Z,70.00
2023-04-06T05:23:48.543Z,71.43
2023-04-06T05:26:15.963Z,62.87
2023-04-06T05:28:45.406Z,70.50
2023-04-06T05:31:13.790Z,64.97
2023-04-06T05:33:47.428Z,65.97
2023-04-06T05:36:17.298Z,66.63
2023-04-06T05:38:47.170Z,69.80
2023-04-06T05:41:34.773Z,62.97
2023-04-06T05:44:02.400Z,68.37
2023-04-06T05:46:31.146Z,77.60
2023-04-06T05:49:00.221Z,72.60
2023-04-06T05:51:31.369Z,69.10
2023-04-06T05:53:59.122Z,70.50
2023-04-06T05:56:27.382Z,62.30
2023-04-06T05:58:54.969Z,64.00
2023-04-06T06:01:27.851Z,59.43
2023-04-06T06:03:55.252Z,64.73
2023-04-06T06:06:27.119Z,53.90
2023-04-06T06:09:07.704Z,63.00
2023-04-06T06:11:41.711Z,49.60
2023-04-06T06:14:10.170Z,50.00
2023-04-06T06:16:39.960Z,51.20
2023-04-06T06:19:09.038Z,42.20
2023-04-06T06:21:37.624Z,46.43
2023-04-06T06:24:08.011Z,41.67
2023-04-06T06:26:38.153Z,42.92
2023-04-06T06:29:08.619Z,41.55
2023-04-06T06:31:39.055Z,35.28
2023-04-06T06:34:06.527Z,43.80
2023-04-06T06:36:36.442Z,35.20
2023-04-06T06:39:07.386Z,36.08
2023-04-06T06:41:35.500Z,36.35
2023-04-06T06:44:03.452Z,45.58
2023-04-06T06:46:31.026Z,43.67
2023-04-06T06:48:59.884Z,41.05
2023-04-06T06:51:27.388Z,41.50
2023-04-06T06:53:54.816Z,45.72
2023-04-06T06:56:23.222Z,31.08
2023-04-06T06:58:52.631Z,31.65
2023-04-06T07:01:20.486Z,39.58
2023-04-06T07:03:48.040Z,35.05
2023-04-06T07:06:15.393Z,30.40
2023-04-06T07:08:42.768Z,29.02
2023-04-06T07:11:10.278Z,36.53
2023-04-06T07:13:37.653Z,30.95
2023-04-06T07:16:05.565Z,29.00
2023-04-06T07:18:35.645Z,35.42
2023-04-06T07:23:31.307Z,31.92
2023-04-06T07:25:58.672Z,25.83
2023-04-06T07:28:26.101Z,24.08
2023-04-06T07:30:55.442Z,26.13
2023-04-06T07:33:23.466Z,32.88
2023-04-06T07:35:52.683Z,26.83
2023-04-06T07:38:20.368Z,31.85
2023-04-06T07:40:47.780Z,33.70
2023-04-06T07:43:15.309Z,27.67
2023-04-06T07:45:43.139Z,27.65
2023-04-06T07:48:11.475Z,35.10
2023-04-06T07:50:39.721Z,29.52
2023-04-06T07:53:07.727Z,29.95
2023-04-06T07:55:35.948Z,23.83
2023-04-06T07:58:03.311Z,20.88
2023-04-06T08:00:32.569Z,14.15
2023-04-06T08:03:00.197Z,14.77
2023-04-06T08:05:27.774Z,20.60
2023-04-06T08:07:55.202Z,19.58
2023-04-06T08:10:22.539Z,20.23
2023-04-06T08:12:49.813Z,22.92
2023-04-06T08:15:19.219Z,18.80
2023-04-06T08:17:46.730Z,23.75
2023-04-06T08:20:14.071Z,22.67
2023-04-06T08:22:41.377Z,16.13
2023-04-06T08:25:09.092Z,20.10
2023-04-06T08:27:36.529Z,16.90
2023-04-06T08:30:04.306Z,18.45
2023-04-06T08:32:32.029Z,19.33
2023-04-06T08:34:59.389Z,22.70
2023-04-06T08:37:26.886Z,34.28
2023-04-06T08:39:54.261Z,24.65
2023-04-06T08:42:23.642Z,23.08
2023-04-06T08:44:53.500Z,20.65
2023-04-06T08:47:24.067Z,18.45
2023-04-06T08:49:54.853Z,18.52
2023-04-06T08:52:22.263Z,14.05
2023-04-06T08:54:49.750Z,13.68
2023-04-06T08:57:17.822Z,27.08
2023-04-06T08:59:46.221Z,15.45
2023-04-06T09:02:19.600Z,19.38
2023-04-06T09:04:49.861Z,11.68
2023-04-06T09:07:17.825Z,11.90
2023-04-06T09:09:48.813Z,10.95
2023-04-06T09:12:31.294Z,13.00
2023-04-06T09:14:59.852Z,12.27
2023-04-06T09:17:34.889Z,11.43
2023-04-06T09:20:04.174Z,10.38
2023-04-06T09:22:43.064Z,12.10
2023-04-06T09:25:19.100Z,13.30
2023-04-06T09:27:46.533Z,13.40
2023-04-06T09:30:17.840Z,17.60
2023-04-06T09:32:53.396Z,16.25
2023-04-06T09:35:22.129Z,12.63
2023-04-06T09:37:52.907Z,15.18
2023-04-06T09:40:22.156Z,15.82
2023-04-06T09:42:53.055Z,14.52
2023-04-06T09:45:21.913Z,17.35
2023-04-06T09:47:52.462Z,15.20
2023-04-06T09:50:20.900Z,14.45
2023-04-06T09:52:52.324Z,15.93
2023-04-06T09:55:31.629Z,12.00
2023-04-06T09:58:20.262Z,13.18
2023-04-06T10:01:18.425Z,14.60
2023-04-06T10:04:13.547Z,16.85
2023-04-06T10:06:41.990Z,15.85
2023-04-06T10:09:10.372Z,15.07
2023-04-06T10:11:38.177Z,20.40
2023-04-06T10:14:06.604Z,18.20
2023-04-06T10:16:34.286Z,15.80
2023-04-06T10:19:32.716Z,21.13
2023-04-06T10:22:03.839Z,15.35
2023-04-06T10:24:31.328Z,14.57
2023-04-06T10:27:07.417Z,15.00
2023-04-06T10:29:49.935Z,20.30
2023-04-06T10:32:17.582Z,17.77
2023-04-06T10:34:44.910Z,23.50
2023-04-06T10:37:16.961Z,18.00
2023-04-06T10:39:59.355Z,14.40
2023-04-06T10:42:38.502Z,18.30
2023-04-06T10:45:21.639Z,17.67
2023-04-06T10:47:49.425Z,15.32
2023-04-06T10:50:18.230Z,17.40
2023-04-06T10:52:47.623Z,15.60
2023-04-06T10:55:16.079Z,18.25
2023-04-06T10:57:43.585Z,23.48
2023-04-06T11:00:13.968Z,13.88
2023-04-06T11:02:41.774Z,13.98
2023-04-06T11:05:09.740Z,8.50
2023-04-06T11:07:37.132Z,13.18
2023-04-06T11:10:15.594Z,11.38
2023-04-06T11:12:45.933Z,10.65
2023-04-06T11:15:13.222Z,11.57
2023-04-06T11:17:40.912Z,15.13
2023-04-06T11:20:12.379Z,10.50
2023-04-06T11:22:53.626Z,13.00
2023-04-06T11:25:21.059Z,9.93
2023-04-06T11:27:49.393Z,13.70
2023-04-06T11:30:16.878Z,14.35
2023-04-06T11:32:46.845Z,10.40
2023-04-06T11:35:23.440Z,10.93
2023-04-06T11:37:51.610Z,15.23
2023-04-06T11:40:25.945Z,11.60
2023-04-06T11:42:57.595Z,12.25
2023-04-06T11:45:25.076Z,10.52
2023-04-06T11:48:01.551Z,10.32
2023-04-06T11:50:35.681Z,11.05
2023-04-06T11:53:04.237Z,8.05
2023-04-06T11:55:39.862Z,11.25
2023-04-06T11:58:08.186Z,11.77
2023-04-06T12:00:35.868Z,14.32
2023-04-06T12:03:03.389Z,9.95
2023-04-06T12:05:31.008Z,15.25
2023-04-06T12:08:01.079Z,15.40
2023-04-06T12:10:30.813Z,8.80
2023-04-06T12:12:58.206Z,11.95
2023-04-06T12:15:25.522Z,10.45
2023-04-06T12:17:53.350Z,13.88
2023-04-06T12:20:26.549Z,12.43
2023-04-06T12:22:54.757Z,15.68
2023-04-06T12:25:22.186Z,14.95
2023-04-06T12:27:49.607Z,13.52
2023-04-06T12:30:17.252Z,13.15
2023-04-06T12:32:44.829Z,12.32
2023-04-06T12:35:14.128Z,11.23
2023-04-06T12:37:41.851Z,11.70
2023-04-06T12:40:11.638Z,12.02
2023-04-06T12:42:42.435Z,11.63
2023-04-06T12:47:38.844Z,11.07
2023-04-06T12:50:07.656Z,14.80
2023-04-06T12:52:36.629Z,13.68
2023-04-06T12:55:06.099Z,14.10
2023-04-06T12:57:33.504Z,12.35
2023-04-06T13:00:01.301Z,10.90
2023-04-06T13:02:28.971Z,15.40
2023-04-06T13:04:56.459Z,12.80
2023-04-06T13:07:24.016Z,13.93
2023-04-06T13:09:52.359Z,13.52
2023-04-06T13:12:20.019Z,12.57
2023-04-06T13:14:51.937Z,11.73
2023-04-06T13:17:19.334Z,16.80
2023-04-06T13:19:46.667Z,13.35
2023-04-06T13:22:13.957Z,11.63
2023-04-06T13:24:41.230Z,14.25
2023-04-06T13:27:08.550Z,13.57
2023-04-06T13:29:36.027Z,12.25
2023-04-06T13:32:03.395Z,13.73
2023-04-06T13:34:30.738Z,11.52
2023-04-06T13:36:58.112Z,19.10
2023-04-06T13:39:25.544Z,24.45
2023-04-06T13:41:57.237Z,15.85
2023-04-06T13:44:24.722Z,13.15
2023-04-06T13:46:52.198Z,13.73
2023-04-06T13:49:19.729Z,17.10
2023-04-06T13:51:47.132Z,16.58
2023-04-06T13:54:14.402Z,19.73
2023-04-06T13:56:41.744Z,20.45
2023-04-06T13:59:08.988Z,20.38
2023-04-06T14:01:36.484Z,18.13
2023-04-06T14:04:04.017Z,15.20
2023-04-06T14:06:32.297Z,17.92
2023-04-06T14:09:00.317Z,18.25
2023-04-06T14:11:27.953Z,16.42
2023-04-06T14:13:57.799Z,19.65
2023-04-06T14:16:26.110Z,19.45
2023-04-06T14:18:53.420Z,17.08
2023-04-06T14:21:21.079Z,14.10
2023-04-06T14:23:48.346Z,15.52
2023-04-06T14:26:16.357Z,16.95
2023-04-06T14:28:43.941Z,18.48
2023-04-06T14:31:14.663Z,16.10
2023-04-06T14:33:43.443Z,15.98
2023-04-06T14:36:11.938Z,15.02
2023-04-06T14:38:40.495Z,14.35
2023-04-06T14:41:09.212Z,20.13
2023-04-06T14:43:36.468Z,16.98
2023-04-06T14:46:04.044Z,14.25
2023-04-06T14:48:31.422Z,16.95
2023-04-06T14:50:59.081Z,15.27
2023-04-06T14:53:27.189Z,16.35
2023-04-06T14:55:54.983Z,13.50
2023-04-06T14:58:24.109Z,13.23
2023-04-06T15:01:01.164Z,17.83
2023-04-06T15:03:30.499Z,15.52
2023-04-06T15:05:58.663Z,16.08
2023-04-06T15:08:26.438Z,14.90
2023-04-06T15:10:55.746Z,16.50
2023-04-06T15:13:23.229Z,19.30
2023-04-06T15:15:52.664Z,127.22
2023-04-06T15:18:21.085Z,24.92
2023-04-06T15:20:48.803Z,20.70
2023-04-06T15:23:16.200Z,17.88
2023-04-06T15:25:43.552Z,18.00
2023-04-06T15:28:11.156Z,21.05
2023-04-06T15:30:38.921Z,21.25
2023-04-06T15:33:09.479Z,21.02
2023-04-06T15:35:41.114Z,20.20
2023-04-06T15:38:10.092Z,20.13
2023-04-06T15:40:48.402Z,17.80
2023-04-06T15:43:16.666Z,17.67
2023-04-06T15:45:43.965Z,17.13
2023-04-06T15:48:11.355Z,16.10
2023-04-06T15:50:38.797Z,16.65
2023-04-06T15:53:06.184Z,16.75
2023-04-06T15:55:33.640Z,15.82
2023-04-06T15:58:01.105Z,21.00
2023-04-06T16:00:28.958Z,21.42
2023-04-06T16:02:57.309Z,18.40
2023-04-06T16:05:25.733Z,21.60
2023-04-06T16:07:55.020Z,22.85
2023-04-06T16:10:22.309Z,17.67
2023-04-06T16:12:49.581Z,25.70
2023-04-06T16:15:17.232Z,23.55
2023-04-06T16:17:44.597Z,24.13
2023-04-06T16:20:12.950Z,25.75
2023-04-06T16:22:41.143Z,23.33
2023-04-06T16:25:09.289Z,27.67
2023-04-06T16:27:36.758Z,22.60
2023-04-06T16:30:05.022Z,26.25
2023-04-06T16:32:32.365Z,26.73
2023-04-06T16:34:59.675Z,21.15
2023-04-06T16:37:29.729Z,23.52
2023-04-06T16:39:57.520Z,22.08
2023-04-06T16:42:25.301Z,31.38
2023-04-06T16:44:52.787Z,23.55
2023-04-06T16:47:20.746Z,35.50
2023-04-06T16:49:47.960Z,26.25
2023-04-06T16:52:15.236Z,23.48
2023-04-06T16:54:42.366Z,29.55
2023-04-06T16:57:09.756Z,29.30
2023-04-06T16:59:37.262Z,33.25
2023-04-06T17:02:04.525Z,35.60
2023-04-06T17:04:31.870Z,27.83
2023-04-06T17:06:59.186Z,32.50
2023-04-06T17:09:26.608Z,31.27
2023-04-06T17:11:53.827Z,30.63
2023-04-06T17:14:21.198Z,30.23
2023-04-06T17:16:48.704Z,33.20
2023-04-06T17:19:16.215Z,33.33
2023-04-06T17:21:43.434Z,34.03
2023-04-06T17:24:10.932Z,32.27
2023-04-06T17:26:38.266Z,36.33
2023-04-06T17:29:05.549Z,31.63
2023-04-06T17:31:33.060Z,34.07
2023-04-06T17:34:00.862Z,34.17
2023-04-06T17:36:28.572Z,33.00
2023-04-06T17:38:55.977Z,32.50
2023-04-06T17:41:24.202Z,31.23
2023-04-06T17:43:51.613Z,30.77
2023-04-06T17:46:20.659Z,33.20
2023-04-06T17:48:48.660Z,33.77
2023-04-06T17:51:18.873Z,35.20
2023-04-06T17:53:46.901Z,32.00
2023-04-06T17:56:14.497Z,29.57
2023-04-06T17:58:42.072Z,29.93
2023-04-06T18:01:13.024Z,28.50
2023-04-06T18:03:40.415Z,47.23
2023-04-06T18:06:16.180Z,26.97
2023-04-06T18:08:43.762Z,28.93
2023-04-06T18:11:21.702Z,33.00
2023-04-06T18:13:49.696Z,30.37
2023-04-06T18:16:17.746Z,26.90
2023-04-06T18:18:45.413Z,29.20
2023-04-06T18:21:12.675Z,31.17
2023-04-06T18:23:40.065Z,29.20
2023-04-06T18:26:07.657Z,30.67
2023-04-06T18:28:35.007Z,28.27
2023-04-06T18:31:02.554Z,30.27
2023-04-06T18:33:30.099Z,33.43
2023-04-06T18:35:57.336Z,27.50
2023-04-06T18:38:24.636Z,30.93
2023-04-06T18:40:52.645Z,29.77
2023-04-06T18:43:19.909Z,27.00
2023-04-06T18:45:47.750Z,28.90
2023-04-06T18:48:15.030Z,31.33
2023-04-06T18:50:55.576Z,32.47
2023-04-06T18:53:22.750Z,36.70
2023-04-06T18:55:51.626Z,30.63
2023-04-06T18:58:19.451Z,29.50
2023-04-06T19:00:46.849Z,34.40
2023-04-06T19:03:14.282Z,32.47
2023-04-06T19:05:42.424Z,31.97
2023-04-06T19:08:10.499Z,35.60
2023-04-06T19:10:38.719Z,30.47
2023-04-06T19:13:06.163Z,29.73
2023-04-06T19:15:33.606Z,27.60
2023-04-06T19:18:00.961Z,33.07
2023-04-06T19:20:28.210Z,31.13
2023-04-06T19:25:28.329Z,31.97
2023-04-06T19:27:56.746Z,31.80
2023-04-06T19:30:24.387Z,34.00
2023-04-06T19:32:51.714Z,33.23
2023-04-06T19:35:19.232Z,30.30
2023-04-06T19:37:46.590Z,30.40
2023-04-06T19:40:13.881Z,32.67
2023-04-06T19:42:41.160Z,33.67
2023-04-06T19:45:09.094Z,38.13
2023-04-06T19:47:36.801Z,31.50
2023-04-06T19:50:06.002Z,38.83
2023-04-06T19:52:33.874Z,34.53
2023-04-06T19:55:01.180Z,36.37
2023-04-06T19:57:28.664Z,35.60
2023-04-06T19:59:56.520Z,44.37
2023-04-06T20:02:23.819Z,34.70
2023-04-06T20:04:51.336Z,39.77
2023-04-06T20:07:18.657Z,38.47
2023-04-06T20:09:45.960Z,34.07
2023-04-06T20:12:13.265Z,41.37
2023-04-06T20:14:40.496Z,36.60
2023-04-06T20:17:07.793Z,42.27
2023-04-06T20:19:35.108Z,43.43
2023-04-06T20:22:03.801Z,41.50
2023-04-06T20:24:31.654Z,48.67
2023-04-06T20:26:59.460Z,44.93
2023-04-06T20:29:27.417Z,51.80
2023-04-06T20:31:54.834Z,54.30
2023-04-06T20:34:25.972Z,56.30
2023-04-06T20:36:53.775Z,49.97
2023-04-06T20:39:21.773Z,60.00
2023-04-06T20:41:49.231Z,49.53
2023-04-06T20:44:16.938Z,48.50
2023-04-06T20:46:45.816Z,54.47
2023-04-06T20:49:13.310Z,49.97
2023-04-06T20:51:42.595Z,49.77
2023-04-06T20:54:09.811Z,64.40
2023-04-06T20:56:37.140Z,50.87
2023-04-06T20:59:07.507Z,44.53
2023-04-06T21:01:34.799Z,53.38
2023-04-06T21:04:04.246Z,60.40
2023-04-06T21:06:32.460Z,58.53
2023-04-06T21:09:01.284Z,53.87
2023-04-06T21:11:28.571Z,53.93
2023-04-06T21:13:56.657Z,52.57
2023-04-06T21:16:23.882Z,52.63
2023-04-06T21:18:51.902Z,56.80
2023-04-06T21:21:19.082Z,51.23
2023-04-06T21:23:46.438Z,48.40
2023-04-06T21:26:13.784Z,72.07
2023-04-06T21:28:41.003Z,59.00
2023-04-06T21:31:09.663Z,62.13
2023-04-06T21:33:36.924Z,67.67
2023-04-06T21:36:08.603Z,85.27
2023-04-06T21:38:35.899Z,73.40
2023-04-06T21:41:03.508Z,62.20
2023-04-06T21:43:30.927Z,62.90
2023-04-06T21:45:58.146Z,61.17
2023-04-06T21:48:25.434Z,62.47
2023-04-06T21:50:52.839Z,63.33
2023-04-06T21:53:20.251Z,57.57
2023-04-06T21:55:48.156Z,55.03
2023-04-06T21:58:15.959Z,56.80
2023-04-06T22:00:43.461Z,62.07
2023-04-06T22:03:11.238Z,59.90
2023-04-06T22:05:38.644Z,56.23
2023-04-06T22:08:05.943Z,64.90
2023-04-06T22:10:33.232Z,61.30
2023-04-06T22:13:00.492Z,67.10
2023-04-06T22:15:27.704Z,59.17
2023-04-06T22:17:55.066Z,59.27
2023-04-06T22:20:22.291Z,62.05
2023-04-06T22:22:50.094Z,59.07
2023-04-06T22:25:17.353Z,61.57
2023-04-06T22:27:44.815Z,60.83
2023-04-06T22:30:12.411Z,57.15
2023-04-06T22:32:39.742Z,56.63
2023-04-06T22:35:08.132Z,58.80
2023-04-06T22:37:35.476Z,61.77
2023-04-06T22:40:02.886Z,60.00
2023-04-06T22:42:30.148Z,62.70
2023-04-06T22:44:57.293Z,52.50
2023-04-06T22:47:24.601Z,58.77
2023-04-06T22:49:51.964Z,59.37
2023-04-06T22:52:19.202Z,54.60
2023-04-06T22:54:46.594Z,56.57
2023-04-06T22:57:13.906Z,69.83
2023-04-06T22:59:41.318Z,62.50
2023-04-06T23:02:08.969Z,61.23
2023-04-06T23:04:36.375Z,65.20
2023-04-06T23:07:03.556Z,61.57
2023-04-06T23:09:31.231Z,59.43
2023-04-06T23:11:58.447Z,54.70
2023-04-06T23:14:25.665Z,67.37
2023-04-06T23:16:52.879Z,56.77
2023-04-06T23:19:20.195Z,59.23
2023-04-06T23:21:47.532Z,61.30
2023-04-06T23:24:14.761Z,55.77
2023-04-06T23:26:41.979Z,55.90
2023-04-06T23:29:09.202Z,65.27
2023-04-06T23:31:36.520Z,64.60
2023-04-06T23:34:04.047Z,62.53
2023-04-06T23:36:32.117Z,61.77
2023-04-06T23:38:59.299Z,67.77
2023-04-06T23:41:27.743Z,60.80
2023-04-06T23:43:56.137Z,59.03
2023-04-06T23:46:23.524Z,66.90
2023-04-06T23:48:50.857Z,71.73
2023-04-06T23:51:18.131Z,69.20
2023-04-06T23:53:46.294Z,75.60
2023-04-06T23:56:13.554Z,69.73
2023-04-06T23:58:41.180Z,78.97
